Time;durP1;ratioP1;P1;durP2;ratioP2;P2;SDS_P1;SDS_P2;PMS_P1;PMS_P2;Temp;Humidity;BMP_temperature;BMP_pressure;BME280_temperature;BME280_humidity;BME280_pressure;Samples;Min_cycle;Max_cycle;Signal;HPM_P1;HPM_P2
2022/01/14 00:01:28;;;;;;;35.17;15.15;;;;;;;4.58;100.00;103581.09;4892870;29;20048;-68
2022/01/14 00:03:53;;;;;;;30.40;14.73;;;;;;;4.57;100.00;103574.06;4893083;29;20059;-67
2022/01/14 00:06:19;;;;;;;32.67;14.30;;;;;;;4.58;100.00;103580.22;4892230;29;20527;-67
2022/01/14 00:08:44;;;;;;;34.92;15.27;;;;;;;4.60;100.00;103578.50;4892697;29;20044;-67
2022/01/14 00:11:15;;;;;;;30.98;14.88;;;;;;;4.60;100.00;103586.38;4876069;29;20086;-68
2022/01/14 00:14:06;;;;;;;26.75;14.18;;;;;;;4.59;100.00;103592.47;4885923;29;20095;-67
2022/01/14 00:16:32;;;;;;;28.45;13.65;;;;;;;4.58;100.00;103586.34;4892599;29;20593;-67
2022/01/14 00:18:58;;;;;;;32.78;15.18;;;;;;;4.57;100.00;103573.19;4892451;29;20089;-67
2022/01/14 00:21:24;;;;;;;30.90;15.57;;;;;;;4.58;100.00;103570.59;4874749;29;20043;-67
2022/01/14 00:24:04;;;;;;;31.73;14.90;;;;;;;4.58;100.00;103570.59;4874512;29;20059;-68
2022/01/14 00:32:05;;;;;;;35.28;14.68;;;;;;;4.58;100.00;103564.47;4891415;29;20578;-67
2022/01/14 00:34:30;;;;;;;31.27;16.00;;;;;;;4.57;100.00;103562.72;4891221;29;20040;-67
2022/01/14 00:36:56;;;;;;;29.13;15.18;;;;;;;4.55;100.00;103554.78;4891424;29;20036;-68
2022/01/14 00:39:21;;;;;;;33.28;15.43;;;;;;;4.55;100.00;103570.53;4891236;29;20681;-67
2022/01/14 00:41:47;;;;;;;34.35;13.50;;;;;;;4.55;100.00;103564.38;4892537;29;20145;-68
2022/01/14 00:44:14;;;;;;;38.53;15.20;;;;;;;4.55;100.00;103562.66;4891224;29;20036;-67
2022/01/14 00:46:43;;;;;;;38.75;15.88;;;;;;;4.56;100.00;103568.78;4892567;29;20065;-67
2022/01/14 00:49:09;;;;;;;36.63;15.57;;;;;;;4.57;100.00;103563.56;4891755;29;20103;-68
2022/01/14 00:51:35;;;;;;;31.65;15.20;;;;;;;4.58;100.00;103560.09;4892692;29;20044;-68
2022/01/14 00:54:01;;;;;;;35.50;15.52;;;;;;;4.60;100.00;103554.88;4891885;29;20126;-68
2022/01/14 00:56:32;;;;;;;30.27;14.23;;;;;;;4.62;100.00;103555.81;4893002;29;20083;-68
2022/01/14 00:59:14;;;;;;;33.92;14.82;;;;;;;4.64;100.00;103553.22;4892138;29;20056;-68
2022/01/14 01:01:46;;;;;;;35.10;15.43;;;;;;;4.66;100.00;103552.41;4871476;29;20043;-69
2022/01/14 01:04:13;;;;;;;35.35;14.45;;;;;;;4.66;100.00;103548.88;4884256;29;20036;-68
2022/01/14 01:06:39;;;;;;;38.25;15.18;;;;;;;4.68;100.00;103540.19;4891833;29;20046;-69
2022/01/14 01:09:10;;;;;;;35.60;14.15;;;;;;;4.69;100.00;103531.47;4885462;29;20042;-68
2022/01/14 01:11:39;;;;;;;33.47;14.48;;;;;;;4.70;100.00;103528.03;4891182;29;20067;-68
2022/01/14 01:14:13;;;;;;;34.55;15.93;;;;;;;4.72;100.00;103531.56;4892010;29;20029;-68
2022/01/14 01:16:39;;;;;;;37.63;15.15;;;;;;;4.73;100.00;103535.94;4891951;29;20040;-69
2022/01/14 01:19:04;;;;;;;43.15;15.45;;;;;;;4.76;100.00;103532.50;4891822;29;20636;-69
2022/01/14 01:21:30;;;;;;;38.72;15.60;;;;;;;4.76;100.00;103533.38;4892072;29;20040;-68
2022/01/14 01:23:55;;;;;;;37.38;14.60;;;;;;;4.78;100.00;103524.69;4891334;29;20636;-68
2022/01/14 01:26:29;;;;;;;39.05;15.45;;;;;;;4.79;100.00;103534.31;4887317;29;20032;-69
2022/01/14 01:29:04;;;;;;;37.70;14.70;;;;;;;4.80;100.00;103531.69;4892346;29;20037;-69
2022/01/14 01:31:37;;;;;;;42.17;15.82;;;;;;;4.81;100.00;103529.97;4891365;29;20036;-68
2022/01/14 01:34:17;;;;;;;37.28;15.30;;;;;;;4.82;100.00;103524.78;4878251;29;20115;-69
2022/01/14 01:36:45;;;;;;;44.22;16.80;;;;;;;4.83;100.00;103528.25;4871038;29;20067;-68
2022/01/14 01:39:13;;;;;;;37.22;15.98;;;;;;;4.84;100.00;103527.41;4892448;29;20103;-69
2022/01/14 01:41:41;;;;;;;42.55;16.15;;;;;;;4.85;100.00;103523.97;4889081;29;20630;-68
2022/01/14 01:44:08;;;;;;;46.42;17.27;;;;;;;4.87;100.00;103532.75;4894161;29;20031;-69
2022/01/14 01:46:37;;;;;;;40.05;15.75;;;;;;;4.88;100.00;103532.78;4895368;29;20152;-69
2022/01/14 01:49:04;;;;;;;38.63;16.60;;;;;;;4.89;100.00;103521.41;4893879;29;20047;-69
2022/01/14 01:51:30;;;;;;;41.90;17.13;;;;;;;4.91;100.00;103531.97;4894488;29;20039;-69
2022/01/14 01:53:55;;;;;;;41.65;17.48;;;;;;;4.91;100.00;103528.44;4894461;29;20047;-68
2022/01/14 01:56:21;;;;;;;45.85;17.52;;;;;;;4.92;100.00;103531.09;4895006;29;20668;-68
2022/01/14 01:58:46;;;;;;;42.28;15.30;;;;;;;4.93;100.00;103530.25;4893331;29;20716;-68
2022/01/14 02:01:12;;;;;;;39.22;15.93;;;;;;;4.94;100.00;103518.88;4876370;29;20158;-68
2022/01/14 02:03:38;;;;;;;39.45;16.50;;;;;;;4.96;100.00;103514.53;4876388;29;20071;-68
2022/01/14 02:06:04;;;;;;;42.20;18.58;;;;;;;4.97;100.00;103513.69;4876157;29;20033;-67
2022/01/14 02:08:30;;;;;;;54.63;17.67;;;;;;;4.97;100.00;103513.69;4875976;29;20141;-68
2022/01/14 02:10:56;;;;;;;49.75;18.02;;;;;;;5.00;100.00;103516.41;4876175;29;20037;-67
2022/01/14 02:13:23;;;;;;;35.40;15.95;;;;;;;5.01;100.00;103509.41;4877186;29;20040;-68
2022/01/14 02:16:35;;;;;;;32.78;16.88;;;;;;;5.02;100.00;103505.94;4875667;29;20040;-67
2022/01/14 02:18:49;;;;;;;38.47;17.02;;;;;;;5.02;100.00;103498.91;4868235;29;20120;-67
2022/01/14 02:24:20;;;;;;;48.97;17.15;;;;;;;5.03;100.00;103503.31;4873898;29;20048;-67
2022/01/14 02:26:48;;;;;;;41.58;16.98;;;;;;;5.05;100.00;103500.72;4875429;29;20047;-67
2022/01/14 02:29:14;;;;;;;40.45;17.30;;;;;;;5.07;100.00;103500.78;4858347;29;20028;-69
2022/01/14 02:31:39;;;;;;;49.35;17.30;;;;;;;5.08;100.00;103502.53;4876475;29;20032;-68
2022/01/14 02:34:05;;;;;;;41.53;16.63;;;;;;;5.08;100.00;103498.19;4875468;29;20040;-68
2022/01/14 02:36:31;;;;;;;43.38;17.95;;;;;;;5.09;100.00;103497.31;4875867;29;20032;-68
2022/01/14 02:38:57;;;;;;;37.63;17.20;;;;;;;5.10;100.00;103501.72;4874434;29;20072;-67
2022/01/14 02:41:22;;;;;;;49.17;18.50;;;;;;;5.11;100.00;103505.22;4874298;29;20032;-68
2022/01/14 02:43:48;;;;;;;41.97;17.38;;;;;;;5.11;100.00;103498.22;4855041;29;20107;-68
2022/01/14 02:46:15;;;;;;;43.15;17.50;;;;;;;5.11;100.00;103486.81;4876036;29;20046;-68
2022/01/14 02:48:40;;;;;;;40.15;18.83;;;;;;;5.14;100.00;103497.41;4874662;29;20035;-68
2022/01/14 02:51:14;;;;;;;33.45;17.90;;;;;;;5.14;100.00;103502.66;4858845;29;20071;-68
2022/01/14 02:56:08;;;;;;;44.92;17.10;;;;;;;5.15;100.00;103489.56;4875294;29;20056;-68
2022/01/14 02:59:09;;;;;;;43.03;18.13;;;;;;;5.16;100.00;103493.06;4875841;29;20041;-68
2022/01/14 03:01:36;;;;;;;40.97;17.65;;;;;;;5.16;100.00;103485.19;4861848;29;20048;-69
2022/01/14 03:04:02;;;;;;;40.38;17.33;;;;;;;5.16;100.00;103483.47;4875557;29;20089;-68
2022/01/14 03:06:28;;;;;;;40.80;16.77;;;;;;;5.16;100.00;103486.09;4868507;29;20550;-68
2022/01/14 03:08:54;;;;;;;33.08;17.63;;;;;;;5.16;100.00;103478.19;4875808;29;20120;-68
2022/01/14 03:11:28;;;;;;;43.00;17.90;;;;;;;5.16;100.00;103478.19;4874978;29;20123;-68
2022/01/14 03:13:54;;;;;;;48.33;19.08;;;;;;;5.16;100.00;103475.56;4874060;29;20615;-69
2022/01/14 03:16:20;;;;;;;47.88;20.17;;;;;;;5.17;100.00;103471.19;4875000;29;20714;-68
2022/01/14 03:18:50;;;;;;;42.92;19.58;;;;;;;5.18;100.00;103475.63;4876051;29;20530;-68
2022/01/14 03:21:24;;;;;;;43.00;18.88;;;;;;;5.20;100.00;103488.75;4875084;29;20044;-69
2022/01/14 03:24:01;;;;;;;39.53;18.45;;;;;;;5.18;100.00;103483.50;4875213;29;20039;-68
2022/01/14 03:26:27;;;;;;;47.22;20.17;;;;;;;5.18;100.00;103480.88;4876268;29;20036;-69
2022/01/14 03:28:53;;;;;;;46.08;19.60;;;;;;;5.18;100.00;103483.50;4874869;29;20486;-69
2022/01/14 03:31:18;;;;;;;41.92;19.20;;;;;;;5.18;100.00;103470.38;4861455;29;20135;-68
2022/01/14 03:33:44;;;;;;;36.47;18.00;;;;;;;5.19;100.00;103466.88;4857481;29;20033;-68
2022/01/14 03:36:10;;;;;;;34.53;17.65;;;;;;;5.19;100.00;103477.38;4873694;29;20029;-69
2022/01/14 03:38:36;;;;;;;42.80;19.05;;;;;;;5.18;100.00;103480.88;4874606;29;20680;-69
2022/01/14 03:41:03;;;;;;;39.10;19.30;;;;;;;5.18;100.00;103467.75;4876250;29;20060;-68
2022/01/14 03:43:29;;;;;;;39.80;18.60;;;;;;;5.17;100.00;103455.44;4875537;29;20041;-69
2022/01/14 03:45:55;;;;;;;45.65;19.90;;;;;;;5.18;100.00;103462.47;4872361;29;20652;-68
2022/01/14 03:48:21;;;;;;;40.70;19.50;;;;;;;5.20;100.00;103463.38;4858406;29;20641;-68
2022/01/14 03:50:47;;;;;;;45.35;19.73;;;;;;;5.18;100.00;103462.47;4873715;29;21399;-68
2022/01/14 03:53:13;;;;;;;45.70;18.88;;;;;;;5.18;100.00;103454.59;4874518;29;20127;-68
2022/01/14 03:55:40;;;;;;;36.78;18.13;;;;;;;5.18;100.00;103457.22;4857210;29;20295;-68
2022/01/14 03:58:06;;;;;;;37.17;18.65;;;;;;;5.19;100.00;103459.00;4874324;29;20632;-68
2022/01/14 04:00:32;;;;;;;46.95;18.77;;;;;;;5.19;100.00;103455.47;4873722;29;20083;-69
2022/01/14 04:02:57;;;;;;;42.05;19.65;;;;;;;5.18;100.00;103445.81;4875297;29;20136;-68
2022/01/14 04:05:23;;;;;;;40.42;19.25;;;;;;;5.18;100.00;103457.22;4873214;29;20535;-69
2022/01/14 04:07:49;;;;;;;40.03;19.30;;;;;;;5.18;100.00;103453.69;4874265;29;20032;-68
2022/01/14 04:10:14;;;;;;;38.97;19.08;;;;;;;5.19;100.00;103447.59;4873820;29;20139;-69
2022/01/14 04:12:56;;;;;;;38.78;19.85;;;;;;;5.19;100.00;103432.72;4874448;29;20029;-69
2022/01/14 04:15:38;;;;;;;41.75;19.67;;;;;;;5.17;100.00;103447.56;4873869;29;20036;-69
2022/01/14 04:18:13;;;;;;;39.30;20.58;;;;;;;5.18;100.00;103441.47;4874043;29;20083;-69
2022/01/14 04:20:39;;;;;;;43.60;20.55;;;;;;;5.16;100.00;103432.66;4874161;29;20065;-69
2022/01/14 04:23:05;;;;;;;38.92;20.42;;;;;;;5.15;100.00;103426.53;4873850;29;20036;-68
2022/01/14 04:25:32;;;;;;;48.30;20.90;;;;;;;5.15;100.00;103429.16;4874326;29;20039;-69
2022/01/14 04:27:58;;;;;;;40.80;20.63;;;;;;;5.15;100.00;103425.63;4874205;29;20040;-68
2022/01/14 04:30:24;;;;;;;44.58;22.10;;;;;;;5.15;100.00;103430.88;4854925;29;20047;-68
2022/01/14 04:32:50;;;;;;;37.78;20.35;;;;;;;5.15;100.00;103425.63;4867728;29;20163;-68
2022/01/14 04:35:16;;;;;;;33.75;20.15;;;;;;;5.15;100.00;103428.25;4869733;29;20117;-68
2022/01/14 04:37:42;;;;;;;37.72;19.83;;;;;;;5.14;100.00;103421.25;4868083;29;20092;-68
2022/01/14 04:40:09;;;;;;;42.15;21.50;;;;;;;5.13;100.00;103420.34;4873733;29;20044;-68
2022/01/14 04:42:35;;;;;;;42.30;20.83;;;;;;;5.14;100.00;103419.47;4858263;29;20131;-68
2022/01/14 04:45:01;;;;;;;33.55;19.42;;;;;;;5.12;100.00;103428.22;4873111;29;20040;-68
2022/01/14 04:47:44;;;;;;;42.15;20.27;;;;;;;5.12;100.00;103425.59;4873250;29;20069;-68
2022/01/14 04:50:11;;;;;;;33.78;19.35;;;;;;;5.10;100.00;103422.03;4874018;29;20052;-68
2022/01/14 04:52:39;;;;;;;48.40;21.02;;;;;;;5.10;100.00;103420.31;4873188;29;20040;-68
2022/01/14 04:55:05;;;;;;;38.50;20.05;;;;;;;5.09;100.00;103436.03;4873611;29;20028;-68
2022/01/14 04:57:31;;;;;;;33.45;19.50;;;;;;;5.07;100.00;103420.22;4873411;29;20112;-68
2022/01/14 04:59:56;;;;;;;42.42;19.10;;;;;;;5.07;100.00;103422.84;4872953;29;20139;-68
2022/01/14 05:02:22;;;;;;;45.35;18.70;;;;;;;5.07;100.00;103428.09;4871663;29;21854;-69
2022/01/14 05:04:48;;;;;;;42.17;18.85;;;;;;;5.09;100.00;103423.78;4872421;29;20040;-69
2022/01/14 05:07:23;;;;;;;40.92;20.05;;;;;;;5.09;100.00;103430.78;4872788;29;20565;-68
2022/01/14 05:09:58;;;;;;;37.28;19.13;;;;;;;5.09;100.00;103428.16;4885289;29;20527;-69
2022/01/14 05:12:23;;;;;;;40.13;19.95;;;;;;;5.09;100.00;103433.41;4874510;29;20048;-69
2022/01/14 05:14:49;;;;;;;32.97;17.95;;;;;;;5.09;100.00;103433.41;4877231;29;20043;-68
2022/01/14 05:17:14;;;;;;;36.22;19.90;;;;;;;5.10;100.00;103449.19;4877368;29;20139;-68
2022/01/14 05:19:40;;;;;;;36.55;18.83;;;;;;;5.10;100.00;103443.03;4876081;29;20055;-68
2022/01/14 05:22:05;;;;;;;37.67;19.05;;;;;;;5.09;100.00;103436.03;4876916;29;20040;-68
2022/01/14 05:24:31;;;;;;;42.22;20.00;;;;;;;5.08;100.00;103437.78;4876665;29;20416;-68
2022/01/14 05:26:56;;;;;;;44.05;20.48;;;;;;;5.09;100.00;103443.91;4877555;29;20095;-68
2022/01/14 05:29:22;;;;;;;39.15;20.48;;;;;;;5.10;100.00;103422.03;4877429;29;20054;-69
2022/01/14 05:31:50;;;;;;;41.45;19.65;;;;;;;5.11;100.00;103421.16;4877533;29;20036;-68
2022/01/14 05:34:17;;;;;;;42.35;21.33;;;;;;;5.10;100.00;103408.91;4876501;29;20032;-68
2022/01/14 05:36:42;;;;;;;40.55;19.45;;;;;;;5.09;100.00;103401.88;4877342;29;20044;-68
2022/01/14 05:39:09;;;;;;;40.60;20.30;;;;;;;5.09;100.00;103401.88;4876077;29;21855;-68
2022/01/14 05:41:35;;;;;;;40.00;20.70;;;;;;;5.08;100.00;103402.75;4877140;29;20115;-68
2022/01/14 05:44:01;;;;;;;39.33;19.00;;;;;;;5.07;100.00;103404.47;4859724;29;20154;-68
2022/01/14 05:46:27;;;;;;;36.20;19.27;;;;;;;5.07;100.00;103414.09;4876893;29;20032;-68
2022/01/14 05:48:53;;;;;;;33.75;18.58;;;;;;;5.06;100.00;103407.09;4859740;29;20036;-68
2022/01/14 05:51:19;;;;;;;39.03;19.50;;;;;;;5.05;100.00;103410.56;4877247;29;20048;-69
2022/01/14 05:53:44;;;;;;;41.20;19.63;;;;;;;5.04;100.00;103396.56;4875533;29;20831;-69
2022/01/14 05:56:10;;;;;;;35.92;19.27;;;;;;;5.02;100.00;103390.41;4877490;29;20040;-69
2022/01/14 05:58:35;;;;;;;38.13;18.77;;;;;;;5.01;100.00;103407.88;4875015;29;21088;-69
2022/01/14 06:01:01;;;;;;;34.30;18.63;;;;;;;5.02;100.00;103406.16;4876606;29;20144;-69
2022/01/14 06:03:26;;;;;;;35.92;19.05;;;;;;;5.01;100.00;103413.13;4875441;29;20052;-69
2022/01/14 06:05:52;;;;;;;39.97;18.80;;;;;;;5.01;100.00;103418.38;4876340;29;20576;-69
2022/01/14 06:08:17;;;;;;;44.13;18.10;;;;;;;5.00;100.00;103419.25;4876852;29;20504;-69
2022/01/14 06:10:43;;;;;;;36.88;17.58;;;;;;;5.00;100.00;103421.88;4876883;29;20071;-69
2022/01/14 06:13:08;;;;;;;36.47;19.45;;;;;;;5.01;100.00;103420.13;4875834;29;20535;-69
2022/01/14 06:15:34;;;;;;;37.83;17.50;;;;;;;5.01;100.00;103433.28;4853158;29;20043;-69
2022/01/14 06:18:01;;;;;;;34.83;17.40;;;;;;;5.00;100.00;103440.25;4875970;29;20028;-69
2022/01/14 06:20:27;;;;;;;32.05;17.83;;;;;;;5.00;100.00;103439.34;4854408;29;20160;-69
2022/01/14 06:22:53;;;;;;;33.88;17.35;;;;;;;5.00;100.00;103445.50;4875801;29;20052;-69
2022/01/14 06:25:19;;;;;;;35.42;17.88;;;;;;;4.99;100.00;103432.34;4876341;29;20121;-69
2022/01/14 06:27:45;;;;;;;42.13;18.67;;;;;;;4.97;100.00;103436.69;4876959;29;20045;-68
2022/01/14 06:30:11;;;;;;;39.28;19.63;;;;;;;4.98;100.00;103439.34;4875813;29;20033;-69
2022/01/14 06:32:42;;;;;;;38.63;18.92;;;;;;;4.97;100.00;103442.78;4875956;29;20044;-69
2022/01/14 06:35:10;;;;;;;35.63;17.90;;;;;;;4.96;100.00;103438.41;4875060;29;20032;-69
2022/01/14 06:37:36;;;;;;;40.92;17.63;;;;;;;4.96;100.00;103435.78;4875977;29;20047;-69
2022/01/14 06:40:03;;;;;;;43.90;17.05;;;;;;;4.96;100.00;103440.16;4874922;29;20040;-69
2022/01/14 06:42:28;;;;;;;43.47;17.75;;;;;;;4.95;100.00;103444.50;4876491;29;20115;-69
2022/01/14 06:44:53;;;;;;;40.08;17.58;;;;;;;4.96;100.00;103446.28;4874533;29;20744;-69
2022/01/14 06:47:19;;;;;;;40.97;19.38;;;;;;;5.00;100.00;103445.50;4876191;29;20048;-69
2022/01/14 06:49:44;;;;;;;41.20;25.48;;;;;;;5.02;100.00;103443.78;4875933;29;20024;-69
2022/01/14 06:52:10;;;;;;;51.70;26.98;;;;;;;5.05;100.00;103447.34;4873405;29;20049;-69
2022/01/14 06:54:35;;;;;;;41.97;17.30;;;;;;;5.07;100.00;103450.88;4874718;29;20036;-69
2022/01/14 06:57:01;;;;;;;40.00;15.73;;;;;;;5.05;100.00;103444.72;4876420;29;20042;-69
2022/01/14 06:59:27;;;;;;;34.65;14.35;;;;;;;5.04;100.00;103446.44;4875691;29;20661;-69
2022/01/14 07:01:53;;;;;;;35.17;14.60;;;;;;;5.05;100.00;103439.47;4875849;29;20198;-69
2022/01/14 07:04:18;;;;;;;30.25;12.80;;;;;;;5.04;100.00;103443.81;4875727;29;20107;-69
2022/01/14 07:06:44;;;;;;;29.33;13.57;;;;;;;5.05;100.00;103452.59;4875784;29;20487;-69
2022/01/14 07:09:10;;;;;;;36.50;16.90;;;;;;;5.05;100.00;103453.47;4875803;29;20032;-69
2022/01/14 07:11:37;;;;;;;27.08;13.50;;;;;;;5.08;100.00;103452.63;4875507;29;20087;-69
2022/01/14 07:14:06;;;;;;;27.77;12.75;;;;;;;5.08;100.00;103447.38;4875261;29;20036;-69
2022/01/14 07:16:33;;;;;;;33.33;12.95;;;;;;;5.09;100.00;103446.53;4878766;29;20043;-69
2022/01/14 07:19:03;;;;;;;27.17;12.95;;;;;;;5.10;100.00;103448.28;4874815;29;20028;-69
2022/01/14 07:21:28;;;;;;;24.98;11.63;;;;;;;5.12;100.00;103451.84;4872072;29;20116;-69
2022/01/14 07:23:54;;;;;;;26.42;12.85;;;;;;;5.12;100.00;103441.34;4855316;29;20201;-69
2022/01/14 07:26:20;;;;;;;32.05;12.30;;;;;;;5.13;100.00;103443.97;4872408;29;20392;-69
2022/01/14 07:28:46;;;;;;;30.23;12.05;;;;;;;5.15;100.00;103444.03;4875035;29;20044;-70
2022/01/14 07:31:12;;;;;;;28.52;12.35;;;;;;;5.16;100.00;103448.41;4874621;29;20032;-69
2022/01/14 07:33:38;;;;;;;27.67;10.88;;;;;;;5.16;100.00;103451.03;4875831;29;20033;-69
2022/01/14 07:36:04;;;;;;;26.02;11.52;;;;;;;5.19;100.00;103437.09;4872602;29;20096;-69
2022/01/14 07:38:29;;;;;;;24.65;10.23;;;;;;;5.18;100.00;103449.34;4874154;29;20059;-69
2022/01/14 07:40:55;;;;;;;27.88;10.48;;;;;;;5.19;100.00;103437.09;4875686;29;20048;-69
2022/01/14 07:43:21;;;;;;;21.90;9.35;;;;;;;5.19;100.00;103447.59;4870125;29;20041;-69
2022/01/14 07:45:47;;;;;;;23.75;8.77;;;;;;;5.19;100.00;103443.25;4859972;29;21043;-69
2022/01/14 07:48:13;;;;;;;24.30;9.38;;;;;;;5.22;100.00;103445.91;4867815;29;20403;-69
2022/01/14 07:50:39;;;;;;;21.23;9.07;;;;;;;5.22;100.00;103453.78;4874957;29;20044;-69
2022/01/14 07:53:05;;;;;;;21.63;8.75;;;;;;;5.22;100.00;103455.53;4873096;29;20496;-69
2022/01/14 07:55:30;;;;;;;29.15;9.68;;;;;;;5.22;100.00;103448.53;4874644;29;20119;-69
2022/01/14 07:57:56;;;;;;;17.70;9.73;;;;;;;5.23;100.00;103463.44;4875166;29;20041;-69
2022/01/14 08:00:22;;;;;;;22.63;9.10;;;;;;;5.25;100.00;103456.50;4874773;29;20050;-69
2022/01/14 08:02:48;;;;;;;20.92;9.10;;;;;;;5.25;100.00;103459.13;4875209;29;20097;-69
2022/01/14 08:05:15;;;;;;;20.77;9.25;;;;;;;5.26;100.00;103454.72;4872987;29;20092;-69
2022/01/14 08:07:46;;;;;;;15.13;8.73;;;;;;;5.27;100.00;103453.88;4873110;29;20051;-69
2022/01/14 08:10:15;;;;;;;21.80;9.70;;;;;;;5.29;100.00;103457.44;4858236;29;20039;-69
2022/01/14 08:12:43;;;;;;;24.10;8.20;;;;;;;5.29;100.00;103471.44;4872329;29;20043;-69
2022/01/14 08:15:10;;;;;;;20.83;8.95;;;;;;;5.30;100.00;103460.06;4873450;29;20147;-70
2022/01/14 08:17:36;;;;;;;21.98;8.07;;;;;;;5.32;100.00;103469.75;4867987;29;20044;-70
2022/01/14 08:20:03;;;;;;;22.50;8.55;;;;;;;5.32;100.00;103470.59;4873909;29;20043;-70
2022/01/14 08:22:31;;;;;;;17.55;8.43;;;;;;;5.34;100.00;103462.75;4872482;29;20068;-69
2022/01/14 08:25:00;;;;;;;20.23;8.18;;;;;;;5.35;100.00;103468.06;4859439;29;20284;-71
2022/01/14 08:27:28;;;;;;;17.92;8.77;;;;;;;5.39;100.00;103469.00;4872677;29;20047;-70
2022/01/14 08:29:54;;;;;;;19.73;8.43;;;;;;;5.42;100.00;103469.03;4868930;29;20045;-70
2022/01/14 08:32:21;;;;;;;23.50;8.80;;;;;;;5.43;100.00;103468.19;4857690;29;20063;-69
2022/01/14 08:34:47;;;;;;;19.50;7.68;;;;;;;5.45;100.00;103466.44;4871999;29;20115;-68
2022/01/14 08:37:12;;;;;;;19.13;7.88;;;;;;;5.45;100.00;103455.94;4871641;29;20051;-68
2022/01/14 08:39:39;;;;;;;26.15;8.98;;;;;;;5.47;100.00;103453.34;4872773;29;20482;-68
2022/01/14 08:42:06;;;;;;;24.08;8.00;;;;;;;5.49;100.00;103452.53;4873940;29;20055;-68
2022/01/14 08:44:32;;;;;;;18.20;7.57;;;;;;;5.50;100.00;103453.41;4872159;29;20115;-70
2022/01/14 08:46:58;;;;;;;17.67;7.90;;;;;;;5.52;100.00;103463.09;4866661;29;20462;-69
2022/01/14 08:49:24;;;;;;;19.45;7.88;;;;;;;5.52;100.00;103463.09;4871700;29;20033;-71
2022/01/14 08:51:49;;;;;;;18.13;6.90;;;;;;;5.55;100.00;103457.88;4874451;29;20036;-70
2022/01/14 08:54:16;;;;;;;21.33;6.82;;;;;;;5.56;100.00;103458.78;4873415;29;20500;-70
2022/01/14 08:56:42;;;;;;;18.33;6.72;;;;;;;5.57;100.00;103463.19;4873503;29;20032;-70
2022/01/14 08:59:08;;;;;;;16.70;6.45;;;;;;;5.60;100.00;103457.97;4872168;29;20132;-69
2022/01/14 09:01:34;;;;;;;17.38;6.05;;;;;;;5.58;100.00;103457.94;4855776;29;20068;-69
2022/01/14 09:04:01;;;;;;;16.60;6.18;;;;;;;5.61;100.00;103457.09;4872766;29;20068;-69
2022/01/14 09:06:28;;;;;;;15.32;5.68;;;;;;;5.65;100.00;103460.66;4872647;29;20029;-69
2022/01/14 09:08:53;;;;;;;17.65;6.30;;;;;;;5.66;100.00;103455.44;4867383;29;20059;-69
2022/01/14 09:11:19;;;;;;;17.80;5.68;;;;;;;5.69;100.00;103460.78;4865935;29;20172;-69
2022/01/14 09:13:44;;;;;;;16.83;5.25;;;;;;;5.73;100.00;103466.97;4869617;29;20036;-69
2022/01/14 09:16:10;;;;;;;15.68;5.70;;;;;;;5.74;100.00;103458.22;4871001;29;20168;-69
2022/01/14 09:18:36;;;;;;;17.23;5.40;;;;;;;5.77;100.00;103463.50;4870381;29;20091;-69
2022/01/14 09:21:02;;;;;;;14.30;5.10;;;;;;;5.80;100.00;103454.78;4873206;29;20029;-69
2022/01/14 09:23:29;;;;;;;14.52;4.97;;;;;;;5.83;100.00;103457.50;4871443;29;20064;-69
2022/01/14 09:25:55;;;;;;;10.98;5.22;;;;;;;5.85;100.00;103450.50;4873362;29;20040;-69
2022/01/14 09:28:20;;;;;;;14.90;4.65;;;;;;;5.88;100.00;103447.03;4873122;29;20031;-69
2022/01/14 09:30:46;;;;;;;15.43;5.45;;;;;;;5.91;100.00;103457.59;4873761;29;20033;-69
2022/01/14 09:33:12;;;;;;;18.02;4.68;;;;;;;5.92;100.00;103446.22;4873703;29;20036;-69
2022/01/14 09:35:40;;;;;;;13.30;4.50;;;;;;;5.97;100.00;103449.81;4872021;29;20039;-68
2022/01/14 09:38:06;;;;;;;13.80;4.45;;;;;;;6.00;100.00;103441.09;4857942;29;20043;-68
2022/01/14 09:40:32;;;;;;;14.07;4.22;;;;;;;6.02;100.00;103435.03;4872230;29;20036;-68
2022/01/14 09:43:00;;;;;;;14.75;4.30;;;;;;;6.06;100.00;103443.84;4873273;29;20040;-69
2022/01/14 09:45:28;;;;;;;15.77;4.47;;;;;;;6.09;100.00;103439.50;4871187;29;20061;-67
2022/01/14 09:47:54;;;;;;;12.07;4.07;;;;;;;6.11;100.00;103439.53;4874247;29;20041;-68
2022/01/14 09:50:19;;;;;;;11.57;4.28;;;;;;;6.14;100.00;103446.59;4871266;29;20124;-69
2022/01/14 09:52:47;;;;;;;18.63;4.75;;;;;;;6.17;100.00;103451.91;4873408;29;20580;-69
2022/01/14 09:55:12;;;;;;;10.90;4.05;;;;;;;6.20;100.00;103462.44;4872435;29;20072;-69
2022/01/14 09:57:38;;;;;;;14.18;4.15;;;;;;;6.23;100.00;103476.53;4872238;29;20115;-69
2022/01/14 10:00:07;;;;;;;16.65;4.32;;;;;;;6.25;100.00;103476.56;4873277;29;20049;-66
2022/01/14 10:02:37;;;;;;;11.65;4.00;;;;;;;6.29;100.00;103485.38;4877114;29;20079;-66
2022/01/14 10:05:04;;;;;;;12.75;4.05;;;;;;;6.31;100.00;103481.06;4875968;29;20040;-66
2022/01/14 10:07:30;;;;;;;16.48;4.10;;;;;;;6.32;100.00;103485.44;4876898;29;20076;-66
2022/01/14 10:10:00;;;;;;;16.80;4.35;;;;;;;6.33;100.00;103501.22;4875605;29;20107;-66
2022/01/14 10:12:30;;;;;;;12.63;3.60;;;;;;;6.31;100.00;103495.06;4875861;29;20869;-67
2022/01/14 10:14:58;;;;;;;13.95;4.32;;;;;;;6.34;100.00;103488.97;4870728;29;20037;-67
2022/01/14 10:17:26;;;;;;;19.08;4.80;;;;;;;6.31;100.00;103497.72;4870086;29;20036;-67
2022/01/14 10:19:51;;;;;;;16.48;4.30;;;;;;;6.35;100.00;103498.63;4874758;29;20060;-67
2022/01/14 10:22:48;;;;;;;15.20;3.88;;;;;;;6.38;100.00;103498.69;4875468;29;20083;-67
2022/01/14 10:25:18;;;;;;;17.23;4.20;;;;;;;6.41;100.00;103509.25;4872278;29;20056;-67
2022/01/14 10:27:44;;;;;;;14.32;4.03;;;;;;;6.43;100.00;103501.38;4876546;29;20043;-67
2022/01/14 10:30:12;;;;;;;16.92;4.95;;;;;;;6.46;100.00;103504.94;4875955;29;20044;-67
2022/01/14 10:32:39;;;;;;;15.90;4.10;;;;;;;6.47;100.00;103498.81;4875836;29;20420;-66
2022/01/14 10:35:06;;;;;;;15.18;4.47;;;;;;;6.50;100.00;103508.50;4874347;29;20681;-67
2022/01/14 10:37:33;;;;;;;14.80;3.42;;;;;;;6.51;100.00;103507.66;4875690;29;20044;-66
2022/01/14 10:39:58;;;;;;;16.08;4.35;;;;;;;6.52;100.00;103507.69;4875617;29;20040;-66
2022/01/14 10:42:29;;;;;;;17.05;3.83;;;;;;;6.53;100.00;103508.53;4876139;29;20033;-67
2022/01/14 10:44:56;;;;;;;24.77;4.80;;;;;;;6.55;100.00;103505.94;4872870;29;20503;-67
2022/01/14 10:47:24;;;;;;;16.65;4.30;;;;;;;6.52;100.00;103504.16;4875033;29;20037;-66
2022/01/14 10:49:57;;;;;;;17.90;4.32;;;;;;;6.54;100.00;103506.81;4875512;29;20039;-68
2022/01/14 10:52:25;;;;;;;15.82;4.82;;;;;;;6.55;100.00;103516.47;4861027;29;20189;-70
2022/01/14 10:54:53;;;;;;;15.93;4.13;;;;;;;6.56;100.00;103512.97;4876152;29;20052;-70
2022/01/14 10:57:27;;;;;;;16.88;3.92;;;;;;;6.59;100.00;103507.75;4872303;29;20045;-69
2022/01/14 11:00:13;;;;;;;12.07;4.13;;;;;;;6.61;100.00;103501.66;4864055;29;20055;-68
2022/01/14 11:02:42;;;;;;;24.08;4.10;;;;;;;6.63;100.00;103507.81;4870897;29;20090;-69
2022/01/14 11:05:09;;;;;;;18.90;3.88;;;;;;;6.64;100.00;103511.31;4873458;29;20044;-68
2022/01/14 11:07:35;;;;;;;12.65;3.22;;;;;;;6.64;100.00;103512.22;4861759;29;20037;-68
2022/01/14 11:10:13;;;;;;;10.73;3.47;;;;;;;6.62;100.00;103502.53;4869814;29;20495;-69
2022/01/14 11:12:40;;;;;;;17.27;3.80;;;;;;;6.62;100.00;103503.44;4875101;29;20043;-69
2022/01/14 11:15:07;;;;;;;15.75;3.42;;;;;;;6.62;100.00;103513.06;4874820;29;20087;-68
2022/01/14 11:17:39;;;;;;;19.27;3.38;;;;;;;6.60;100.00;103509.53;4869617;29;20060;-69
2022/01/14 11:20:07;;;;;;;11.52;3.80;;;;;;;6.58;100.00;103501.59;4873616;29;20108;-68
2022/01/14 11:25:17;;;;;;;17.05;4.32;;;;;;;6.59;100.00;103508.63;4875670;29;20045;-68
2022/01/14 11:27:49;;;;;;;20.30;4.10;;;;;;;6.61;100.00;103516.56;4873354;29;20887;-68